Monte Cristi, Dominican Republic
Current Conditions -  °F | °C
As of 2:00 AM on Monday 24 Nov 2014 (Local Time) from MDST Reporting Station
Few Clouds Few Clouds  
Wind Chill: 73°   Ceiling: Unl
Heat Index: 73°   Visibility: 6mi
Dew Point: 72°   Wind: 7mph
Humidity: 94%   Direction: 120°ESE
Pressure: 30"   Gusts: NA
Location:  19.85°N, 71.65°W
Report Text: MDST 240600Z 12006KT 9999 FEW018 23/22 Q1016
Loading
Personal Weather Stations






























Interactive Weather Map New forecast layout! Learn more

10-Day Weather Forecast

Advertisements
Track Severe Weather on mobile